Time,TemperatureF,DewpointF,PressureIn,WindDirection,WindDirectionDegrees,WindSpeedMPH,WindSpeedGustMPH,Humidity,HourlyPrecipIn,Conditions,Clouds,dailyrainin,SoftwareType,DateUTC
2014-08-21 00:13:00,75.0,65.0,29.98,WNW,283,0.0,1.0,71,0.00,,,0.00,,2014-08-21 04:13:00,
2014-08-21 00:24:00,75.0,65.0,29.98,West,270,0.0,1.0,72,0.00,,,0.00,,2014-08-21 04:24:00,
2014-08-21 00:43:00,75.0,66.0,29.99,West,274,0.0,2.0,73,0.00,,,0.00,,2014-08-21 04:43:00,
2014-08-21 00:53:00,75.0,65.0,29.99,WNW,283,0.0,1.0,72,0.00,,,0.00,,2014-08-21 04:53:00,
2014-08-21 01:22:00,73.0,64.0,29.99,West,268,0.0,4.0,74,0.03,,,0.03,,2014-08-21 05:22:00,
2014-08-21 02:12:00,69.0,64.0,29.99,WSW,258,1.0,4.0,85,0.06,,,0.06,,2014-08-21 06:12:00,
2014-08-21 02:22:00,68.0,64.0,29.99,WSW,249,3.0,7.0,86,0.01,,,0.06,,2014-08-21 06:22:00,
2014-08-21 03:43:00,66.0,64.0,29.99,West,277,0.0,1.0,92,0.40,,,0.53,,2014-08-21 07:43:00,
2014-08-21 03:53:00,66.0,64.0,29.99,West,278,0.0,0.0,92,0.01,,,0.53,,2014-08-21 07:53:00,
2014-08-21 04:23:00,66.0,64.0,29.99,WNW,283,0.0,0.0,92,0.00,,,0.53,,2014-08-21 08:23:00,
2014-08-21 04:42:00,66.0,64.0,29.99,WNW,283,0.0,1.0,92,0.00,,,0.53,,2014-08-21 08:42:00,
2014-08-21 04:52:00,67.0,65.0,29.99,West,277,0.0,2.0,93,0.00,,,0.53,,2014-08-21 08:52:00,
2014-08-21 06:24:00,65.0,62.0,30.01,West,273,0.0,2.0,91,0.03,,,0.56,,2014-08-21 10:24:00,
2014-08-21 06:43:00,65.0,63.0,30.01,West,271,0.0,2.0,92,0.01,,,0.56,,2014-08-21 10:43:00,
2014-08-21 06:53:00,65.0,63.0,30.01,West,271,0.0,1.0,92,0.00,,,0.56,,2014-08-21 10:53:00,
2014-08-21 07:13:00,65.0,63.0,30.01,West,277,0.0,2.0,92,0.00,,,0.56,,2014-08-21 11:13:00,
2014-08-21 07:23:00,65.0,63.0,30.02,West,278,0.0,1.0,92,0.04,,,0.60,,2014-08-21 11:23:00,
2014-08-21 07:53:00,64.0,62.0,30.02,WNW,283,0.0,1.0,93,0.10,,,0.66,,2014-08-21 11:53:00,
2014-08-21 08:12:00,64.0,62.0,30.03,WNW,283,0.0,1.0,93,0.10,,,0.66,,2014-08-21 12:12:00,
2014-08-21 08:22:00,64.0,62.0,30.02,WNW,295,0.0,2.0,93,0.05,,,0.66,,2014-08-21 12:22:00,
2014-08-21 08:42:00,65.0,63.0,30.03,WNW,293,0.0,1.0,93,0.00,,,0.66,,2014-08-21 12:42:00,
2014-08-21 08:52:00,65.0,63.0,30.03,WNW,293,0.0,2.0,94,0.00,,,0.66,,2014-08-21 12:52:00,
2014-08-21 09:22:00,65.0,63.0,30.02,WNW,283,0.0,1.0,94,0.00,,,0.66,,2014-08-21 13:22:00,
2014-08-21 09:42:00,66.0,64.0,30.02,West,278,0.0,1.0,94,0.00,,,0.66,,2014-08-21 13:42:00,
2014-08-21 09:54:00,67.0,65.0,30.02,West,279,0.0,2.0,93,0.00,,,0.66,,2014-08-21 13:54:00,
2014-08-21 10:42:00,69.0,65.0,30.01,West,279,1.0,5.0,88,0.00,,,0.66,,2014-08-21 14:42:00,
2014-08-21 11:13:00,70.0,65.0,30.02,West,267,1.0,6.0,84,0.00,,,0.66,,2014-08-21 15:13:00,
2014-08-21 11:55:00,70.0,65.0,30.01,WSW,257,2.0,5.0,83,0.00,,,0.66,,2014-08-21 15:55:00,
2014-08-21 12:24:00,71.0,65.0,30.01,NW,304,2.0,5.0,82,0.00,,,0.66,,2014-08-21 16:24:00,
2014-08-21 12:43:00,71.0,65.0,30.01,SSW,193,1.0,5.0,81,0.00,,,0.66,,2014-08-21 16:43:00,
2014-08-21 12:54:00,70.0,64.0,30.01,WNW,288,1.0,6.0,81,0.00,,,0.66,,2014-08-21 16:54:00,
2014-08-21 13:24:00,73.0,65.0,30.00,West,264,2.0,7.0,77,0.00,,,0.66,,2014-08-21 17:24:00,
2014-08-21 13:54:00,74.0,65.0,30.00,SW,231,4.0,7.0,74,0.00,,,0.66,,2014-08-21 17:54:00,
2014-08-21 14:23:00,76.0,66.0,29.99,SSW,212,3.0,7.0,72,0.00,,,0.66,,2014-08-21 18:23:00,
2014-08-21 14:43:00,75.0,66.0,29.99,West,279,0.0,7.0,74,0.00,,,0.66,,2014-08-21 18:43:00,
2014-08-21 15:23:00,76.0,65.0,29.98,WSW,253,2.0,7.0,69,0.00,,,0.66,,2014-08-21 19:23:00,
2014-08-21 15:52:00,76.0,65.0,29.98,West,271,0.0,4.0,68,0.00,,,0.66,,2014-08-21 19:52:00,
2014-08-21 16:23:00,75.0,66.0,29.97,West,264,1.0,4.0,73,0.00,,,0.66,,2014-08-21 20:23:00,
2014-08-21 17:23:00,74.0,64.0,29.97,West,266,3.0,7.0,72,0.00,,,0.66,,2014-08-21 21:23:00,
2014-08-21 17:42:00,73.0,65.0,29.96,WNW,288,0.0,5.0,76,0.00,,,0.66,,2014-08-21 21:42:00,
2014-08-21 18:13:00,72.0,65.0,29.96,West,270,0.0,2.0,79,0.00,,,0.66,,2014-08-21 22:13:00,